createdAt,value
2018-12-09T00:00:14.685Z,10.40
2018-12-09T00:02:42.930Z,10.30
2018-12-09T00:05:11.278Z,10.30
2018-12-09T00:07:39.490Z,10.30
2018-12-09T00:10:07.970Z,10.30
2018-12-09T00:12:36.145Z,10.20
2018-12-09T00:15:04.649Z,10.20
2018-12-09T00:17:32.920Z,10.20
2018-12-09T00:20:01.267Z,10.10
2018-12-09T00:22:29.592Z,10.00
2018-12-09T00:24:57.778Z,9.70
2018-12-09T00:27:26.007Z,9.50
2018-12-09T00:29:54.205Z,9.40
2018-12-09T00:32:22.784Z,9.30
2018-12-09T00:34:51.061Z,9.30
2018-12-09T00:37:19.530Z,9.40
2018-12-09T00:39:47.740Z,9.50
2018-12-09T00:42:15.989Z,9.50
2018-12-09T00:44:44.139Z,9.50
2018-12-09T00:47:12.344Z,9.50
2018-12-09T00:49:40.601Z,9.50
2018-12-09T00:52:08.881Z,9.60
2018-12-09T00:54:37.162Z,9.60
2018-12-09T00:57:05.553Z,9.60
2018-12-09T00:59:33.922Z,9.70
2018-12-09T01:02:06.441Z,9.70
2018-12-09T01:04:34.636Z,9.70
2018-12-09T01:07:02.783Z,9.80
2018-12-09T01:09:31.129Z,9.80
2018-12-09T01:11:59.312Z,9.80
2018-12-09T01:14:27.492Z,9.80
2018-12-09T01:16:55.726Z,9.80
2018-12-09T01:19:23.860Z,9.80
2018-12-09T01:21:52.186Z,9.90
2018-12-09T01:24:20.445Z,9.90
2018-12-09T01:26:48.669Z,9.90
2018-12-09T01:29:19.988Z,9.90
2018-12-09T01:31:48.182Z,9.90
2018-12-09T01:34:16.759Z,10.00
2018-12-09T01:36:44.958Z,10.00
2018-12-09T01:39:13.313Z,9.90
2018-12-09T01:41:41.496Z,9.90
2018-12-09T01:44:09.805Z,10.00
2018-12-09T01:46:38.056Z,10.00
2018-12-09T01:49:06.301Z,10.10
2018-12-09T01:51:34.482Z,10.10
2018-12-09T01:54:09.249Z,9.90
2018-12-09T01:56:37.826Z,9.90
2018-12-09T01:59:06.137Z,9.90
2018-12-09T02:01:34.329Z,9.90
2018-12-09T02:04:02.569Z,9.80
2018-12-09T02:06:31.365Z,9.90
2018-12-09T02:08:59.580Z,9.80
2018-12-09T02:11:27.848Z,9.80
2018-12-09T02:13:56.268Z,9.70
2018-12-09T02:16:24.669Z,9.70
2018-12-09T02:19:17.706Z,9.70
2018-12-09T02:21:46.345Z,9.70
2018-12-09T02:24:15.474Z,9.60
2018-12-09T02:26:43.894Z,9.60
2018-12-09T02:29:12.201Z,9.60
2018-12-09T02:31:40.457Z,9.60
2018-12-09T02:34:08.752Z,9.60
2018-12-09T02:36:37.384Z,9.50
2018-12-09T02:39:07.870Z,9.50
2018-12-09T02:41:36.144Z,9.60
2018-12-09T02:44:04.488Z,9.60
2018-12-09T02:46:32.781Z,9.60
2018-12-09T02:49:01.020Z,9.60
2018-12-09T02:51:29.406Z,9.60
2018-12-09T02:53:57.933Z,9.60
2018-12-09T02:56:26.190Z,9.60
2018-12-09T02:58:54.473Z,9.50
2018-12-09T03:01:22.748Z,9.60
2018-12-09T03:03:51.071Z,9.60
2018-12-09T03:06:19.261Z,9.60
2018-12-09T03:08:47.525Z,9.70
2018-12-09T03:11:15.939Z,9.70
2018-12-09T03:13:44.092Z,9.70
2018-12-09T03:16:12.329Z,9.70
2018-12-09T03:25:39.688Z,9.70
2018-12-09T03:28:07.986Z,9.70
2018-12-09T03:30:36.345Z,9.70
2018-12-09T03:33:04.673Z,9.70
2018-12-09T03:35:33.586Z,9.60
2018-12-09T03:38:01.844Z,9.60
2018-12-09T03:40:30.267Z,9.70
2018-12-09T03:42:58.645Z,9.70
2018-12-09T03:45:26.915Z,9.60
2018-12-09T03:47:55.563Z,9.60
2018-12-09T03:50:23.871Z,9.60
2018-12-09T03:52:52.258Z,9.70
2018-12-09T03:55:20.514Z,9.70
2018-12-09T03:57:48.748Z,9.60
2018-12-09T04:00:17.213Z,9.60
2018-12-09T04:02:45.564Z,9.50
2018-12-09T04:05:13.975Z,9.50
2018-12-09T04:07:42.254Z,9.40
2018-12-09T04:10:10.531Z,9.40
2018-12-09T04:12:38.775Z,9.30
2018-12-09T04:15:07.111Z,9.20
2018-12-09T04:17:35.361Z,9.20
2018-12-09T04:20:04.275Z,9.30
2018-12-09T04:22:32.577Z,9.40
2018-12-09T04:25:00.855Z,9.30
2018-12-09T04:27:29.154Z,9.30
2018-12-09T04:29:57.407Z,9.20
2018-12-09T04:32:25.669Z,9.20
2018-12-09T04:34:54.335Z,9.10
2018-12-09T04:37:22.581Z,8.60
2018-12-09T04:39:50.815Z,8.30
2018-12-09T04:42:19.088Z,8.30
2018-12-09T04:44:47.332Z,8.20
2018-12-09T04:47:15.879Z,8.30
2018-12-09T04:49:44.070Z,8.30
2018-12-09T04:52:12.313Z,8.30
2018-12-09T04:54:40.570Z,8.30
2018-12-09T04:57:08.811Z,8.30
2018-12-09T04:59:42.671Z,8.40
2018-12-09T05:02:10.919Z,8.40
2018-12-09T05:04:39.150Z,8.50
2018-12-09T05:07:07.461Z,8.60
2018-12-09T05:09:36.109Z,8.70
2018-12-09T05:12:04.475Z,8.80
2018-12-09T05:14:32.765Z,8.80
2018-12-09T05:17:01.119Z,8.90
2018-12-09T05:19:29.384Z,9.00
2018-12-09T05:21:57.748Z,9.00
2018-12-09T05:24:25.982Z,9.00
2018-12-09T05:26:54.250Z,9.00
2018-12-09T05:29:22.582Z,9.00
2018-12-09T05:31:50.860Z,9.00
2018-12-09T05:34:19.107Z,9.00
2018-12-09T05:36:47.441Z,8.90
2018-12-09T05:39:15.723Z,8.90
2018-12-09T05:41:43.958Z,8.80
2018-12-09T05:44:12.331Z,8.80
2018-12-09T05:46:40.589Z,8.70
2018-12-09T05:49:08.892Z,8.70
2018-12-09T05:51:37.176Z,8.70
2018-12-09T05:54:05.485Z,8.60
2018-12-09T05:56:33.787Z,8.50
2018-12-09T05:59:02.063Z,8.60
2018-12-09T06:01:30.351Z,8.60
2018-12-09T06:03:58.688Z,8.60
2018-12-09T06:06:26.940Z,8.60
2018-12-09T06:08:55.239Z,8.60
2018-12-09T06:11:23.528Z,8.60
2018-12-09T06:13:51.803Z,8.60
2018-12-09T06:16:20.133Z,8.70
2018-12-09T06:18:48.358Z,8.70
2018-12-09T06:21:17.060Z,8.70
2018-12-09T06:23:45.318Z,8.80
2018-12-09T06:26:13.618Z,8.80
2018-12-09T06:28:41.993Z,8.80
2018-12-09T06:31:10.260Z,8.90
2018-12-09T06:33:38.788Z,8.90
2018-12-09T06:36:07.108Z,8.90
2018-12-09T06:38:35.387Z,8.90
2018-12-09T06:41:03.663Z,8.90
2018-12-09T06:43:32.021Z,8.90
2018-12-09T06:46:00.288Z,9.00
2018-12-09T06:48:28.627Z,9.00
2018-12-09T06:50:56.919Z,9.10
2018-12-09T06:53:25.172Z,9.00
2018-12-09T06:55:53.426Z,9.10
2018-12-09T06:58:21.876Z,9.10
2018-12-09T07:00:50.166Z,9.10
2018-12-09T07:03:18.419Z,9.10
2018-12-09T07:05:46.691Z,9.20
2018-12-09T07:08:15.019Z,9.30
2018-12-09T07:10:43.699Z,9.20
2018-12-09T07:13:12.012Z,9.20
2018-12-09T07:15:40.398Z,9.20
2018-12-09T07:18:08.647Z,9.30
2018-12-09T07:20:36.947Z,9.30
2018-12-09T07:23:05.569Z,9.30
2018-12-09T07:25:33.868Z,9.30
2018-12-09T07:28:02.116Z,9.30
2018-12-09T07:30:30.500Z,9.30
2018-12-09T07:32:58.718Z,9.30
2018-12-09T07:35:27.272Z,9.30
2018-12-09T07:37:55.481Z,9.30
2018-12-09T07:40:23.750Z,9.30
2018-12-09T07:42:51.909Z,9.30
2018-12-09T07:45:20.105Z,9.30
2018-12-09T07:47:48.429Z,9.40
2018-12-09T07:50:16.721Z,9.40
2018-12-09T07:52:46.368Z,9.40
2018-12-09T07:55:14.845Z,9.40
2018-12-09T07:57:43.119Z,9.40
2018-12-09T08:00:11.312Z,9.40
2018-12-09T08:02:39.516Z,9.50
2018-12-09T08:05:07.829Z,9.50
2018-12-09T08:07:36.036Z,9.50
2018-12-09T08:10:04.405Z,9.50
2018-12-09T08:12:32.620Z,9.50
2018-12-09T08:15:00.841Z,9.50
2018-12-09T08:17:29.275Z,9.50
2018-12-09T08:19:57.500Z,9.60
2018-12-09T08:22:25.761Z,9.60
2018-12-09T08:24:53.983Z,9.60
2018-12-09T08:27:22.237Z,9.60
2018-12-09T08:29:50.457Z,9.60
2018-12-09T08:32:18.637Z,9.60
2018-12-09T08:34:46.835Z,9.60
2018-12-09T08:37:15.005Z,9.70
2018-12-09T08:39:43.221Z,9.60
2018-12-09T08:42:11.415Z,9.70
2018-12-09T08:44:39.653Z,9.60
2018-12-09T08:47:07.846Z,9.70
2018-12-09T08:49:36.085Z,9.70
2018-12-09T08:52:04.380Z,9.70
2018-12-09T08:54:32.645Z,9.70
2018-12-09T08:57:00.826Z,9.80
2018-12-09T08:59:29.025Z,9.70
2018-12-09T09:01:57.316Z,9.70
2018-12-09T09:04:25.628Z,9.80
2018-12-09T09:08:18.444Z,9.80
2018-12-09T09:10:46.796Z,9.80
2018-12-09T09:13:15.197Z,9.80
2018-12-09T09:15:43.474Z,9.80
2018-12-09T09:18:11.762Z,9.70
2018-12-09T09:20:39.958Z,9.60
2018-12-09T09:23:08.265Z,9.50
2018-12-09T09:25:36.482Z,9.50
2018-12-09T09:28:04.663Z,9.50
2018-12-09T09:30:32.979Z,9.60
2018-12-09T09:33:01.173Z,9.70
2018-12-09T09:35:29.413Z,9.70
2018-12-09T09:37:57.639Z,9.70
2018-12-09T09:40:26.284Z,9.60
2018-12-09T09:42:54.458Z,9.60
2018-12-09T09:45:22.777Z,9.50
2018-12-09T09:47:51.023Z,9.60
2018-12-09T09:50:19.239Z,9.60
2018-12-09T09:52:47.562Z,9.70
2018-12-09T09:55:15.789Z,9.70
2018-12-09T09:57:43.981Z,9.70
2018-12-09T10:00:12.246Z,9.80
2018-12-09T10:02:41.763Z,9.80
2018-12-09T10:05:10.057Z,9.90
2018-12-09T10:07:38.274Z,9.80
2018-12-09T10:10:07.082Z,9.80
2018-12-09T10:12:35.301Z,9.80
2018-12-09T10:15:03.624Z,9.80
2018-12-09T10:17:31.907Z,9.80
2018-12-09T10:20:00.172Z,9.90
2018-12-09T10:22:28.389Z,10.00
2018-12-09T10:24:56.581Z,9.90
2018-12-09T10:27:24.823Z,9.80
2018-12-09T10:29:53.122Z,9.80
2018-12-09T10:32:21.396Z,9.80
2018-12-09T10:34:49.669Z,9.90
2018-12-09T10:37:17.888Z,9.90
2018-12-09T10:39:46.052Z,9.90
2018-12-09T10:42:14.296Z,10.00
2018-12-09T10:44:42.512Z,9.90
2018-12-09T10:47:10.729Z,9.90
2018-12-09T10:49:39.012Z,9.80
2018-12-09T10:52:07.294Z,9.90
2018-12-09T10:54:35.554Z,9.80
2018-12-09T10:57:03.911Z,9.80
2018-12-09T10:59:32.179Z,9.70
2018-12-09T11:02:05.913Z,9.60
2018-12-09T11:04:34.157Z,9.60
2018-12-09T11:07:02.480Z,9.50
2018-12-09T11:09:30.745Z,9.40
2018-12-09T11:11:59.001Z,9.30
2018-12-09T11:14:27.366Z,9.20
2018-12-09T11:16:55.590Z,9.20
2018-12-09T11:19:23.825Z,9.30
2018-12-09T11:21:52.054Z,9.30
2018-12-09T11:24:20.402Z,9.30
2018-12-09T11:26:48.610Z,9.30
2018-12-09T11:29:16.853Z,9.30
2018-12-09T11:31:45.265Z,9.30
2018-12-09T11:34:13.506Z,9.30
2018-12-09T11:36:41.725Z,9.20
2018-12-09T11:39:10.081Z,9.30
2018-12-09T11:41:38.300Z,9.20
2018-12-09T11:44:06.738Z,9.20
2018-12-09T11:46:36.779Z,9.30
2018-12-09T11:49:05.346Z,9.40
2018-12-09T11:51:33.609Z,9.50
2018-12-09T11:54:02.446Z,9.40
2018-12-09T11:56:30.749Z,9.20
2018-12-09T11:58:59.182Z,9.20
2018-12-09T12:01:27.581Z,9.20
2018-12-09T12:03:56.623Z,9.20
2018-12-09T12:06:25.366Z,9.20
2018-12-09T12:08:54.553Z,9.00
2018-12-09T12:11:22.949Z,9.00
2018-12-09T12:13:51.784Z,8.90
2018-12-09T12:16:20.076Z,8.90
2018-12-09T12:18:48.349Z,8.90
2018-12-09T12:21:16.647Z,9.00
2018-12-09T12:23:44.947Z,9.30
2018-12-09T12:26:14.110Z,10.80
2018-12-09T12:28:42.514Z,11.40
2018-12-09T12:31:11.013Z,11.00
2018-12-09T12:33:39.562Z,10.30
2018-12-09T12:36:07.887Z,9.90
2018-12-09T12:38:36.106Z,9.70
2018-12-09T12:41:04.523Z,9.60
2018-12-09T12:43:32.856Z,9.40
2018-12-09T12:46:01.110Z,9.60
2018-12-09T12:48:29.379Z,9.50
2018-12-09T12:50:57.782Z,9.30
2018-12-09T12:53:26.190Z,9.30
2018-12-09T12:55:54.559Z,9.60
2018-12-09T12:58:22.852Z,9.60
2018-12-09T13:00:51.178Z,9.70
2018-12-09T13:03:19.486Z,9.70
2018-12-09T13:05:47.772Z,9.70
2018-12-09T13:08:16.362Z,10.00
2018-12-09T13:10:44.647Z,10.20
2018-12-09T13:13:12.979Z,10.10
2018-12-09T13:15:41.313Z,9.80
2018-12-09T13:18:09.691Z,9.60
2018-12-09T13:20:37.948Z,9.50
2018-12-09T13:23:06.375Z,9.50
2018-12-09T13:25:34.963Z,9.50
2018-12-09T13:28:03.475Z,9.50
2018-12-09T13:30:31.999Z,9.50
2018-12-09T13:33:00.395Z,9.30
2018-12-09T13:35:28.780Z,9.10
2018-12-09T13:37:57.068Z,8.60
2018-12-09T13:40:25.395Z,8.00
2018-12-09T13:42:53.719Z,7.90
2018-12-09T13:45:22.154Z,7.80
2018-12-09T13:47:50.826Z,7.80
2018-12-09T13:50:19.267Z,7.70
2018-12-09T13:52:47.641Z,7.90
2018-12-09T13:55:16.186Z,7.90
2018-12-09T13:57:44.747Z,8.00
2018-12-09T14:00:17.368Z,8.10
2018-12-09T14:02:45.895Z,8.10
2018-12-09T14:05:14.583Z,8.20
2018-12-09T14:07:42.865Z,8.20
2018-12-09T14:10:12.230Z,8.30
2018-12-09T14:12:40.780Z,8.30
2018-12-09T14:15:09.682Z,8.50
2018-12-09T14:17:38.019Z,8.40
2018-12-09T14:20:08.170Z,8.50
2018-12-09T14:22:36.566Z,8.50
2018-12-09T14:25:05.880Z,8.70
2018-12-09T14:27:36.460Z,8.80
2018-12-09T14:30:05.934Z,8.70
2018-12-09T14:32:34.716Z,8.60
2018-12-09T14:35:04.168Z,8.60
2018-12-09T14:37:32.447Z,8.70
2018-12-09T14:40:00.943Z,8.60
2018-12-09T14:42:29.260Z,8.60
2018-12-09T14:44:57.603Z,8.50
2018-12-09T14:47:26.447Z,8.50
2018-12-09T14:49:54.693Z,8.50
2018-12-09T14:52:23.357Z,8.60
2018-12-09T14:54:51.650Z,8.60
2018-12-09T14:57:20.006Z,8.50
2018-12-09T15:02:23.035Z,8.50
2018-12-09T15:04:51.904Z,8.50
2018-12-09T15:07:20.948Z,8.40
2018-12-09T15:09:49.601Z,8.50
2018-12-09T15:12:18.174Z,8.50
2018-12-09T15:14:47.025Z,8.50
2018-12-09T15:17:15.382Z,8.60
2018-12-09T15:19:43.787Z,8.50
2018-12-09T15:22:12.469Z,8.50
2018-12-09T15:24:41.585Z,8.50
2018-12-09T15:27:11.149Z,8.50
2018-12-09T15:29:39.455Z,8.60
2018-12-09T15:32:08.223Z,8.60
2018-12-09T15:34:36.500Z,8.50
2018-12-09T15:37:04.850Z,8.50
2018-12-09T15:39:33.193Z,8.50
2018-12-09T15:42:01.580Z,8.50
2018-12-09T15:44:29.974Z,8.40
2018-12-09T15:46:58.550Z,8.40
2018-12-09T15:49:28.375Z,8.50
2018-12-09T15:51:56.999Z,8.50
2018-12-09T15:54:25.804Z,8.50
2018-12-09T15:56:54.298Z,8.40
2018-12-09T15:59:22.877Z,8.50
2018-12-09T16:01:51.506Z,8.50
2018-12-09T16:04:19.772Z,8.50
2018-12-09T16:06:48.131Z,8.50
2018-12-09T16:09:16.462Z,8.50
2018-12-09T16:11:44.802Z,8.50
2018-12-09T16:14:13.032Z,8.50
2018-12-09T16:16:41.335Z,8.50
2018-12-09T16:19:09.663Z,8.40
2018-12-09T16:21:37.927Z,8.40
2018-12-09T16:24:06.335Z,8.40
2018-12-09T16:26:34.588Z,8.40
2018-12-09T16:29:02.947Z,8.30
2018-12-09T16:31:31.230Z,8.30
2018-12-09T16:33:59.523Z,8.30
2018-12-09T16:36:27.811Z,8.30
2018-12-09T16:38:56.157Z,8.20
2018-12-09T16:41:24.693Z,8.20
2018-12-09T16:43:53.285Z,8.20
2018-12-09T16:46:21.847Z,8.20
2018-12-09T16:48:50.067Z,8.20
2018-12-09T16:51:18.516Z,8.20
2018-12-09T16:53:46.789Z,8.30
2018-12-09T16:56:15.077Z,8.30
2018-12-09T16:58:43.433Z,8.30
2018-12-09T17:01:12.065Z,8.30
2018-12-09T17:03:40.365Z,8.30
2018-12-09T17:06:08.693Z,8.40
2018-12-09T17:08:37.006Z,8.40
2018-12-09T17:11:05.285Z,8.60
2018-12-09T17:13:34.147Z,9.00
2018-12-09T17:16:02.524Z,9.70
2018-12-09T17:18:30.944Z,10.40
2018-12-09T17:20:59.232Z,11.40
2018-12-09T17:23:27.543Z,11.90
2018-12-09T17:25:55.902Z,11.50
2018-12-09T17:28:24.427Z,11.60
2018-12-09T17:30:52.784Z,11.70
2018-12-09T17:33:23.582Z,10.90
2018-12-09T17:35:52.113Z,11.20
2018-12-09T17:38:20.356Z,11.80
2018-12-09T17:40:48.659Z,11.50
2018-12-09T17:43:16.977Z,12.10
2018-12-09T17:45:45.258Z,12.00
2018-12-09T17:48:13.579Z,11.90
2018-12-09T17:50:41.819Z,11.20
2018-12-09T17:53:10.178Z,10.40
2018-12-09T17:55:38.457Z,9.60
2018-12-09T17:58:06.787Z,9.50
2018-12-09T18:00:35.250Z,9.70
2018-12-09T18:03:03.658Z,9.70
2018-12-09T18:05:31.921Z,9.60
2018-12-09T18:08:00.246Z,9.40
2018-12-09T18:10:28.625Z,9.10
2018-12-09T18:12:57.237Z,8.80
2018-12-09T18:15:25.951Z,8.70
2018-12-09T18:17:54.559Z,8.60
2018-12-09T18:20:22.988Z,8.60
2018-12-09T18:22:51.262Z,8.50
2018-12-09T18:25:19.539Z,8.40
2018-12-09T18:27:47.815Z,8.40
2018-12-09T18:30:16.333Z,8.40
2018-12-09T18:32:44.838Z,8.40
2018-12-09T18:35:13.432Z,8.40
2018-12-09T18:37:41.911Z,8.30
2018-12-09T18:40:10.359Z,8.10
2018-12-09T18:42:38.855Z,8.00
2018-12-09T18:45:07.673Z,7.90
2018-12-09T18:47:35.924Z,7.80
2018-12-09T18:50:04.519Z,7.80
2018-12-09T18:52:33.116Z,7.80
2018-12-09T18:55:02.149Z,7.90
2018-12-09T18:57:30.559Z,7.90
2018-12-09T18:59:59.039Z,7.80
2018-12-09T19:02:27.347Z,7.80
2018-12-09T19:04:55.596Z,7.90
2018-12-09T19:07:23.873Z,7.80
2018-12-09T19:09:52.678Z,7.80
2018-12-09T19:12:21.160Z,7.80
2018-12-09T19:14:50.380Z,7.80
2018-12-09T19:17:18.721Z,7.90
2018-12-09T19:19:46.986Z,7.90
2018-12-09T19:22:15.265Z,7.90
2018-12-09T19:24:43.509Z,8.00
2018-12-09T19:27:11.920Z,7.90
2018-12-09T19:29:40.194Z,7.80
2018-12-09T19:32:08.459Z,7.80
2018-12-09T19:34:36.715Z,7.70
2018-12-09T19:37:04.991Z,7.70
2018-12-09T19:39:33.263Z,7.60
2018-12-09T19:42:01.531Z,7.60
2018-12-09T19:44:30.053Z,7.60
2018-12-09T19:46:58.489Z,7.60
2018-12-09T19:49:26.792Z,7.60
2018-12-09T19:51:55.105Z,7.60
2018-12-09T19:54:23.326Z,7.60
2018-12-09T19:56:51.613Z,7.60
2018-12-09T19:59:19.860Z,7.60
2018-12-09T20:01:48.125Z,7.60
2018-12-09T20:04:16.440Z,7.60
2018-12-09T20:06:44.702Z,7.60
2018-12-09T20:09:12.877Z,7.60
2018-12-09T20:11:41.166Z,7.60
2018-12-09T20:14:09.394Z,7.60
2018-12-09T20:16:37.798Z,7.60
2018-12-09T20:19:06.028Z,7.60
2018-12-09T20:21:34.351Z,7.50
2018-12-09T20:24:02.637Z,7.50
2018-12-09T20:26:30.839Z,7.50
2018-12-09T20:28:59.137Z,7.40
2018-12-09T20:31:27.400Z,7.50
2018-12-09T20:33:55.612Z,7.50
2018-12-09T20:36:23.890Z,7.50
2018-12-09T20:38:53.158Z,7.60
2018-12-09T20:41:21.340Z,7.60
2018-12-09T20:43:49.719Z,7.50
2018-12-09T20:46:17.899Z,7.60
2018-12-09T20:48:46.113Z,7.60
2018-12-09T20:51:14.395Z,7.60
2018-12-09T20:53:42.608Z,7.60
2018-12-09T20:56:10.834Z,7.60
2018-12-09T20:58:39.065Z,7.50
2018-12-09T21:01:07.263Z,7.50
2018-12-09T21:03:35.422Z,7.40
2018-12-09T21:06:03.594Z,7.40
2018-12-09T21:08:31.874Z,7.30
2018-12-09T21:11:00.191Z,7.20
2018-12-09T21:13:28.455Z,7.20
2018-12-09T21:15:56.672Z,7.20
2018-12-09T21:18:24.880Z,7.30
2018-12-09T21:20:53.114Z,7.20
2018-12-09T21:23:21.440Z,7.20
2018-12-09T21:25:49.697Z,7.30
2018-12-09T21:28:17.919Z,7.30
2018-12-09T21:30:46.126Z,7.30
2018-12-09T21:33:14.462Z,7.30
2018-12-09T21:35:42.649Z,7.30
2018-12-09T21:38:10.915Z,7.30
2018-12-09T21:40:39.151Z,7.30
2018-12-09T21:43:07.445Z,7.40
2018-12-09T21:45:35.783Z,7.30
2018-12-09T21:48:04.060Z,7.30
2018-12-09T21:50:32.362Z,7.40
2018-12-09T21:53:00.637Z,7.20
2018-12-09T21:55:29.270Z,7.20
2018-12-09T21:57:57.542Z,7.20
2018-12-09T22:00:25.899Z,7.30
2018-12-09T22:02:54.121Z,7.30
2018-12-09T22:05:22.403Z,7.20
2018-12-09T22:07:51.005Z,7.20
2018-12-09T22:10:19.519Z,7.20
2018-12-09T22:12:47.736Z,7.20
2018-12-09T22:15:15.960Z,7.20
2018-12-09T22:17:44.445Z,7.10
2018-12-09T22:20:12.794Z,7.10
2018-12-09T22:22:41.025Z,7.10
2018-12-09T22:25:10.395Z,7.00
2018-12-09T22:27:38.622Z,7.00
2018-12-09T22:30:07.302Z,7.00
2018-12-09T22:32:35.589Z,7.10
2018-12-09T22:35:04.026Z,7.00
2018-12-09T22:37:32.238Z,7.00
2018-12-09T22:40:00.452Z,7.00
2018-12-09T22:42:28.738Z,7.10
2018-12-09T22:44:56.998Z,7.00
2018-12-09T22:47:25.157Z,7.00
2018-12-09T22:49:53.448Z,7.00
2018-12-09T22:52:28.506Z,7.00
2018-12-09T22:54:56.762Z,7.00
2018-12-09T22:57:24.957Z,7.00
2018-12-09T22:59:53.161Z,7.00
2018-12-09T23:02:26.803Z,7.00
2018-12-09T23:04:55.087Z,7.00
2018-12-09T23:07:28.577Z,7.10
2018-12-09T23:09:56.744Z,7.10
2018-12-09T23:12:24.940Z,7.10
2018-12-09T23:14:53.162Z,7.00
2018-12-09T23:17:21.442Z,7.00
2018-12-09T23:19:49.684Z,7.00
2018-12-09T23:22:17.876Z,7.00
2018-12-09T23:24:46.187Z,7.10
2018-12-09T23:27:14.432Z,7.00
2018-12-09T23:29:42.667Z,6.90
2018-12-09T23:32:10.890Z,6.80
2018-12-09T23:34:39.082Z,6.70
2018-12-09T23:37:07.303Z,6.70
2018-12-09T23:39:35.486Z,6.70
2018-12-09T23:42:03.773Z,6.70
2018-12-09T23:44:32.018Z,6.80
2018-12-09T23:47:00.233Z,6.80
2018-12-09T23:49:28.627Z,6.80
2018-12-09T23:51:56.855Z,6.80
2018-12-09T23:54:25.105Z,6.80
2018-12-09T23:56:53.414Z,6.90
2018-12-09T23:59:21.629Z,6.90
